sensor_id;sensor_type;location;lat;lon;timestamp;P1;durP1;ratioP1;P2;durP2;ratioP2
10491;SDS011;5293;51.464;-2.566;2022-12-04T00:01:21;33.53;;;12.53;;
10491;SDS011;5293;51.464;-2.566;2022-12-04T00:03:52;13.40;;;7.43;;
10491;SDS011;5293;51.464;-2.566;2022-12-04T00:06:19;15.63;;;7.97;;
10491;SDS011;5293;51.464;-2.566;2022-12-04T00:08:46;16.00;;;8.00;;
10491;SDS011;5293;51.464;-2.566;2022-12-04T00:11:13;14.47;;;7.43;;
10491;SDS011;5293;51.464;-2.566;2022-12-04T00:13:41;18.13;;;7.97;;
10491;SDS011;5293;51.464;-2.566;2022-12-04T00:16:08;20.33;;;7.87;;
10491;SDS011;5293;51.464;-2.566;2022-12-04T00:18:36;17.40;;;8.13;;
10491;SDS011;5293;51.464;-2.566;2022-12-04T00:21:03;12.60;;;6.87;;
10491;SDS011;5293;51.464;-2.566;2022-12-04T00:23:34;11.83;;;7.40;;
10491;SDS011;5293;51.464;-2.566;2022-12-04T00:26:00;17.00;;;7.37;;
10491;SDS011;5293;51.464;-2.566;2022-12-04T00:28:27;13.90;;;7.47;;
10491;SDS011;5293;51.464;-2.566;2022-12-04T00:30:53;19.23;;;8.37;;
10491;SDS011;5293;51.464;-2.566;2022-12-04T00:33:19;13.90;;;7.37;;
10491;SDS011;5293;51.464;-2.566;2022-12-04T00:35:45;14.17;;;7.40;;
10491;SDS011;5293;51.464;-2.566;2022-12-04T00:38:11;13.73;;;7.07;;
10491;SDS011;5293;51.464;-2.566;2022-12-04T00:40:37;14.07;;;7.57;;
10491;SDS011;5293;51.464;-2.566;2022-12-04T00:43:02;14.60;;;7.10;;
10491;SDS011;5293;51.464;-2.566;2022-12-04T00:45:28;15.87;;;7.03;;
10491;SDS011;5293;51.464;-2.566;2022-12-04T00:47:54;11.57;;;7.23;;
10491;SDS011;5293;51.464;-2.566;2022-12-04T00:50:19;12.33;;;7.27;;
10491;SDS011;5293;51.464;-2.566;2022-12-04T00:52:45;16.37;;;7.33;;
10491;SDS011;5293;51.464;-2.566;2022-12-04T00:55:11;13.07;;;6.53;;
10491;SDS011;5293;51.464;-2.566;2022-12-04T00:57:37;14.23;;;7.37;;
10491;SDS011;5293;51.464;-2.566;2022-12-04T01:00:03;13.83;;;7.07;;
10491;SDS011;5293;51.464;-2.566;2022-12-04T01:02:30;12.53;;;7.00;;
10491;SDS011;5293;51.464;-2.566;2022-12-04T01:04:55;16.07;;;7.33;;
10491;SDS011;5293;51.464;-2.566;2022-12-04T01:07:21;9.57;;;5.97;;
10491;SDS011;5293;51.464;-2.566;2022-12-04T01:09:47;15.07;;;7.27;;
10491;SDS011;5293;51.464;-2.566;2022-12-04T01:12:12;13.90;;;7.37;;
10491;SDS011;5293;51.464;-2.566;2022-12-04T01:14:38;13.40;;;6.23;;
10491;SDS011;5293;51.464;-2.566;2022-12-04T01:17:04;16.73;;;7.07;;
10491;SDS011;5293;51.464;-2.566;2022-12-04T01:19:30;13.83;;;7.03;;
10491;SDS011;5293;51.464;-2.566;2022-12-04T01:21:55;14.77;;;6.87;;
10491;SDS011;5293;51.464;-2.566;2022-12-04T01:24:21;18.33;;;7.97;;
10491;SDS011;5293;51.464;-2.566;2022-12-04T01:26:46;12.03;;;7.27;;
10491;SDS011;5293;51.464;-2.566;2022-12-04T01:29:12;13.13;;;7.47;;
10491;SDS011;5293;51.464;-2.566;2022-12-04T01:31:38;10.93;;;6.27;;
10491;SDS011;5293;51.464;-2.566;2022-12-04T01:34:03;10.53;;;6.63;;
10491;SDS011;5293;51.464;-2.566;2022-12-04T01:36:32;14.67;;;6.67;;
10491;SDS011;5293;51.464;-2.566;2022-12-04T01:38:58;14.30;;;7.33;;
10491;SDS011;5293;51.464;-2.566;2022-12-04T01:41:25;11.97;;;6.80;;
10491;SDS011;5293;51.464;-2.566;2022-12-04T01:44:26;13.47;;;6.47;;
10491;SDS011;5293;51.464;-2.566;2022-12-04T01:46:53;13.00;;;6.50;;
10491;SDS011;5293;51.464;-2.566;2022-12-04T01:51:56;12.63;;;7.20;;
10491;SDS011;5293;51.464;-2.566;2022-12-04T01:54:27;12.87;;;6.47;;
10491;SDS011;5293;51.464;-2.566;2022-12-04T01:57:04;10.93;;;6.43;;
10491;SDS011;5293;51.464;-2.566;2022-12-04T01:59:52;14.40;;;6.30;;
10491;SDS011;5293;51.464;-2.566;2022-12-04T02:02:34;11.90;;;6.27;;
10491;SDS011;5293;51.464;-2.566;2022-12-04T02:05:03;20.17;;;7.00;;
10491;SDS011;5293;51.464;-2.566;2022-12-04T02:07:30;9.23;;;6.20;;
10491;SDS011;5293;51.464;-2.566;2022-12-04T02:09:56;10.83;;;5.80;;
10491;SDS011;5293;51.464;-2.566;2022-12-04T02:12:30;12.47;;;5.63;;
10491;SDS011;5293;51.464;-2.566;2022-12-04T02:29:00;12.27;;;6.40;;
10491;SDS011;5293;51.464;-2.566;2022-12-04T02:31:34;15.67;;;6.50;;
10491;SDS011;5293;51.464;-2.566;2022-12-04T02:36:40;13.00;;;6.87;;
10491;SDS011;5293;51.464;-2.566;2022-12-04T02:42:09;12.27;;;6.27;;
10491;SDS011;5293;51.464;-2.566;2022-12-04T02:44:44;14.70;;;6.97;;
10491;SDS011;5293;51.464;-2.566;2022-12-04T02:47:14;11.80;;;6.10;;
10491;SDS011;5293;51.464;-2.566;2022-12-04T02:49:44;14.50;;;7.20;;
10491;SDS011;5293;51.464;-2.566;2022-12-04T02:52:13;12.47;;;6.50;;
10491;SDS011;5293;51.464;-2.566;2022-12-04T02:54:45;10.70;;;6.47;;
10491;SDS011;5293;51.464;-2.566;2022-12-04T02:57:17;11.37;;;6.50;;
10491;SDS011;5293;51.464;-2.566;2022-12-04T02:59:50;13.20;;;6.73;;
10491;SDS011;5293;51.464;-2.566;2022-12-04T03:02:24;15.13;;;6.83;;
10491;SDS011;5293;51.464;-2.566;2022-12-04T03:04:56;14.00;;;6.73;;
10491;SDS011;5293;51.464;-2.566;2022-12-04T03:07:28;13.67;;;6.67;;
10491;SDS011;5293;51.464;-2.566;2022-12-04T03:10:00;14.83;;;6.77;;
10491;SDS011;5293;51.464;-2.566;2022-12-04T03:15:21;14.77;;;7.43;;
10491;SDS011;5293;51.464;-2.566;2022-12-04T03:18:00;11.80;;;6.67;;
10491;SDS011;5293;51.464;-2.566;2022-12-04T03:20:31;11.33;;;6.43;;
10491;SDS011;5293;51.464;-2.566;2022-12-04T03:22:59;11.00;;;6.90;;
10491;SDS011;5293;51.464;-2.566;2022-12-04T03:25:31;12.33;;;7.37;;
10491;SDS011;5293;51.464;-2.566;2022-12-04T03:28:03;14.90;;;7.43;;
10491;SDS011;5293;51.464;-2.566;2022-12-04T03:30:35;16.70;;;7.60;;
10491;SDS011;5293;51.464;-2.566;2022-12-04T03:33:07;12.37;;;7.23;;
10491;SDS011;5293;51.464;-2.566;2022-12-04T03:41:24;16.50;;;8.50;;
10491;SDS011;5293;51.464;-2.566;2022-12-04T03:44:05;13.37;;;7.07;;
10491;SDS011;5293;51.464;-2.566;2022-12-04T03:46:53;11.93;;;6.90;;
10491;SDS011;5293;51.464;-2.566;2022-12-04T03:49:30;13.20;;;7.97;;
10491;SDS011;5293;51.464;-2.566;2022-12-04T03:52:15;14.03;;;7.30;;
10491;SDS011;5293;51.464;-2.566;2022-12-04T03:54:47;11.97;;;7.87;;
10491;SDS011;5293;51.464;-2.566;2022-12-04T03:57:23;13.03;;;7.73;;
10491;SDS011;5293;51.464;-2.566;2022-12-04T04:02:38;14.47;;;8.23;;
10491;SDS011;5293;51.464;-2.566;2022-12-04T04:05:17;12.07;;;7.80;;
10491;SDS011;5293;51.464;-2.566;2022-12-04T04:07:45;16.13;;;8.10;;
10491;SDS011;5293;51.464;-2.566;2022-12-04T04:10:18;18.13;;;9.20;;
10491;SDS011;5293;51.464;-2.566;2022-12-04T04:12:48;14.87;;;7.90;;
10491;SDS011;5293;51.464;-2.566;2022-12-04T04:15:39;16.87;;;8.30;;
10491;SDS011;5293;51.464;-2.566;2022-12-04T04:18:28;17.20;;;7.20;;
10491;SDS011;5293;51.464;-2.566;2022-12-04T04:21:15;15.47;;;8.40;;
10491;SDS011;5293;51.464;-2.566;2022-12-04T04:24:03;14.77;;;8.37;;
10491;SDS011;5293;51.464;-2.566;2022-12-04T04:26:46;14.27;;;8.07;;
10491;SDS011;5293;51.464;-2.566;2022-12-04T04:29:13;17.10;;;8.17;;
10491;SDS011;5293;51.464;-2.566;2022-12-04T04:31:42;14.37;;;7.13;;
10491;SDS011;5293;51.464;-2.566;2022-12-04T04:34:11;12.63;;;7.73;;
10491;SDS011;5293;51.464;-2.566;2022-12-04T04:39:57;15.00;;;8.17;;
10491;SDS011;5293;51.464;-2.566;2022-12-04T04:42:38;16.03;;;8.00;;
10491;SDS011;5293;51.464;-2.566;2022-12-04T04:45:28;16.27;;;8.13;;
10491;SDS011;5293;51.464;-2.566;2022-12-04T04:48:14;13.17;;;7.80;;
10491;SDS011;5293;51.464;-2.566;2022-12-04T04:50:47;14.53;;;8.37;;
10491;SDS011;5293;51.464;-2.566;2022-12-04T04:53:20;15.30;;;8.60;;
10491;SDS011;5293;51.464;-2.566;2022-12-04T04:55:50;15.13;;;8.00;;
10491;SDS011;5293;51.464;-2.566;2022-12-04T04:58:18;14.80;;;8.40;;
10491;SDS011;5293;51.464;-2.566;2022-12-04T05:01:07;18.00;;;8.87;;
10491;SDS011;5293;51.464;-2.566;2022-12-04T05:03:51;15.97;;;8.80;;
10491;SDS011;5293;51.464;-2.566;2022-12-04T05:06:17;15.83;;;8.13;;
10491;SDS011;5293;51.464;-2.566;2022-12-04T05:08:43;14.30;;;8.90;;
10491;SDS011;5293;51.464;-2.566;2022-12-04T05:11:12;18.70;;;8.73;;
10491;SDS011;5293;51.464;-2.566;2022-12-04T05:13:39;13.87;;;8.70;;
10491;SDS011;5293;51.464;-2.566;2022-12-04T05:16:06;12.37;;;7.67;;
10491;SDS011;5293;51.464;-2.566;2022-12-04T05:18:34;16.40;;;8.13;;
10491;SDS011;5293;51.464;-2.566;2022-12-04T05:21:11;17.33;;;8.13;;
10491;SDS011;5293;51.464;-2.566;2022-12-04T05:23:43;13.73;;;8.33;;
10491;SDS011;5293;51.464;-2.566;2022-12-04T05:26:08;13.73;;;8.20;;
10491;SDS011;5293;51.464;-2.566;2022-12-04T05:28:34;12.40;;;7.83;;
10491;SDS011;5293;51.464;-2.566;2022-12-04T05:31:02;14.30;;;8.00;;
10491;SDS011;5293;51.464;-2.566;2022-12-04T05:33:28;12.33;;;7.67;;
10491;SDS011;5293;51.464;-2.566;2022-12-04T05:38:23;15.47;;;9.10;;
10491;SDS011;5293;51.464;-2.566;2022-12-04T05:40:49;14.53;;;8.30;;
10491;SDS011;5293;51.464;-2.566;2022-12-04T05:43:14;16.30;;;8.23;;
10491;SDS011;5293;51.464;-2.566;2022-12-04T05:45:40;14.27;;;7.33;;
10491;SDS011;5293;51.464;-2.566;2022-12-04T05:48:06;12.40;;;7.60;;
10491;SDS011;5293;51.464;-2.566;2022-12-04T05:50:31;14.83;;;7.83;;
10491;SDS011;5293;51.464;-2.566;2022-12-04T05:52:57;13.37;;;7.67;;
10491;SDS011;5293;51.464;-2.566;2022-12-04T05:55:23;16.07;;;7.63;;
10491;SDS011;5293;51.464;-2.566;2022-12-04T05:57:48;14.73;;;8.30;;
10491;SDS011;5293;51.464;-2.566;2022-12-04T06:00:14;15.37;;;8.40;;
10491;SDS011;5293;51.464;-2.566;2022-12-04T06:02:40;14.13;;;7.87;;
10491;SDS011;5293;51.464;-2.566;2022-12-04T06:05:06;15.03;;;7.70;;
10491;SDS011;5293;51.464;-2.566;2022-12-04T06:07:31;12.93;;;7.30;;
10491;SDS011;5293;51.464;-2.566;2022-12-04T06:09:57;11.30;;;7.60;;
10491;SDS011;5293;51.464;-2.566;2022-12-04T06:12:23;16.20;;;8.13;;
10491;SDS011;5293;51.464;-2.566;2022-12-04T06:14:48;15.50;;;7.00;;
10491;SDS011;5293;51.464;-2.566;2022-12-04T06:17:14;14.10;;;7.00;;
10491;SDS011;5293;51.464;-2.566;2022-12-04T06:19:40;14.17;;;7.67;;
10491;SDS011;5293;51.464;-2.566;2022-12-04T06:22:05;16.33;;;8.20;;
10491;SDS011;5293;51.464;-2.566;2022-12-04T06:24:31;12.77;;;7.93;;
10491;SDS011;5293;51.464;-2.566;2022-12-04T06:26:57;12.97;;;6.77;;
10491;SDS011;5293;51.464;-2.566;2022-12-04T06:29:23;10.57;;;7.13;;
10491;SDS011;5293;51.464;-2.566;2022-12-04T06:31:49;13.63;;;7.53;;
10491;SDS011;5293;51.464;-2.566;2022-12-04T06:34:14;17.70;;;7.77;;
10491;SDS011;5293;51.464;-2.566;2022-12-04T06:36:40;14.77;;;7.87;;
10491;SDS011;5293;51.464;-2.566;2022-12-04T06:39:06;12.07;;;6.50;;
10491;SDS011;5293;51.464;-2.566;2022-12-04T06:41:32;15.53;;;7.73;;
10491;SDS011;5293;51.464;-2.566;2022-12-04T06:43:57;14.47;;;7.50;;
10491;SDS011;5293;51.464;-2.566;2022-12-04T06:46:24;12.30;;;6.63;;
10491;SDS011;5293;51.464;-2.566;2022-12-04T06:48:55;18.47;;;8.07;;
10491;SDS011;5293;51.464;-2.566;2022-12-04T06:51:26;13.80;;;7.60;;
10491;SDS011;5293;51.464;-2.566;2022-12-04T06:53:56;14.40;;;7.93;;
10491;SDS011;5293;51.464;-2.566;2022-12-04T06:56:23;13.10;;;7.57;;
10491;SDS011;5293;51.464;-2.566;2022-12-04T06:58:51;14.03;;;7.43;;
10491;SDS011;5293;51.464;-2.566;2022-12-04T07:01:19;16.07;;;8.43;;
10491;SDS011;5293;51.464;-2.566;2022-12-04T07:03:47;15.13;;;7.97;;
10491;SDS011;5293;51.464;-2.566;2022-12-04T07:06:17;15.27;;;7.90;;
10491;SDS011;5293;51.464;-2.566;2022-12-04T07:08:44;15.97;;;8.37;;
10491;SDS011;5293;51.464;-2.566;2022-12-04T07:11:11;18.07;;;7.43;;
10491;SDS011;5293;51.464;-2.566;2022-12-04T07:13:37;15.23;;;7.53;;
10491;SDS011;5293;51.464;-2.566;2022-12-04T07:16:04;14.20;;;7.83;;
10491;SDS011;5293;51.464;-2.566;2022-12-04T07:18:31;14.67;;;7.83;;
10491;SDS011;5293;51.464;-2.566;2022-12-04T07:20:57;16.13;;;7.87;;
10491;SDS011;5293;51.464;-2.566;2022-12-04T07:23:23;14.20;;;7.07;;
10491;SDS011;5293;51.464;-2.566;2022-12-04T07:25:49;13.13;;;7.53;;
10491;SDS011;5293;51.464;-2.566;2022-12-04T07:28:15;16.50;;;8.43;;
10491;SDS011;5293;51.464;-2.566;2022-12-04T07:30:41;15.60;;;7.73;;
10491;SDS011;5293;51.464;-2.566;2022-12-04T07:33:06;12.47;;;7.77;;
10491;SDS011;5293;51.464;-2.566;2022-12-04T07:35:32;14.10;;;7.83;;
10491;SDS011;5293;51.464;-2.566;2022-12-04T07:37:58;16.20;;;8.67;;
10491;SDS011;5293;51.464;-2.566;2022-12-04T07:40:23;15.03;;;7.83;;
10491;SDS011;5293;51.464;-2.566;2022-12-04T07:42:49;18.13;;;8.17;;
10491;SDS011;5293;51.464;-2.566;2022-12-04T07:45:15;17.07;;;8.53;;
10491;SDS011;5293;51.464;-2.566;2022-12-04T07:47:40;18.27;;;8.60;;
10491;SDS011;5293;51.464;-2.566;2022-12-04T07:50:06;16.57;;;8.40;;
10491;SDS011;5293;51.464;-2.566;2022-12-04T07:52:35;21.27;;;8.73;;
10491;SDS011;5293;51.464;-2.566;2022-12-04T07:55:02;18.50;;;8.27;;
10491;SDS011;5293;51.464;-2.566;2022-12-04T07:57:29;21.77;;;9.90;;
10491;SDS011;5293;51.464;-2.566;2022-12-04T07:59:55;17.63;;;9.40;;
10491;SDS011;5293;51.464;-2.566;2022-12-04T08:02:20;16.80;;;9.27;;
10491;SDS011;5293;51.464;-2.566;2022-12-04T08:04:46;17.27;;;8.73;;
10491;SDS011;5293;51.464;-2.566;2022-12-04T08:07:12;18.10;;;9.20;;
10491;SDS011;5293;51.464;-2.566;2022-12-04T08:09:38;19.30;;;9.60;;
10491;SDS011;5293;51.464;-2.566;2022-12-04T08:12:04;21.57;;;8.63;;
10491;SDS011;5293;51.464;-2.566;2022-12-04T08:14:30;19.03;;;8.37;;
10491;SDS011;5293;51.464;-2.566;2022-12-04T08:16:55;16.70;;;9.20;;
10491;SDS011;5293;51.464;-2.566;2022-12-04T08:19:21;18.20;;;8.13;;
10491;SDS011;5293;51.464;-2.566;2022-12-04T08:21:47;16.07;;;8.57;;
10491;SDS011;5293;51.464;-2.566;2022-12-04T08:24:12;18.93;;;9.17;;
10491;SDS011;5293;51.464;-2.566;2022-12-04T08:26:38;19.77;;;9.57;;
10491;SDS011;5293;51.464;-2.566;2022-12-04T08:29:04;15.97;;;9.43;;
10491;SDS011;5293;51.464;-2.566;2022-12-04T08:31:31;16.53;;;8.50;;
10491;SDS011;5293;51.464;-2.566;2022-12-04T08:33:59;17.30;;;9.87;;
10491;SDS011;5293;51.464;-2.566;2022-12-04T08:36:26;19.87;;;9.50;;
10491;SDS011;5293;51.464;-2.566;2022-12-04T08:38:53;15.70;;;9.87;;
10491;SDS011;5293;51.464;-2.566;2022-12-04T08:41:20;21.77;;;10.03;;
10491;SDS011;5293;51.464;-2.566;2022-12-04T08:43:47;19.37;;;9.87;;
10491;SDS011;5293;51.464;-2.566;2022-12-04T08:46:14;20.40;;;9.53;;
10491;SDS011;5293;51.464;-2.566;2022-12-04T08:48:41;22.37;;;11.83;;
10491;SDS011;5293;51.464;-2.566;2022-12-04T08:51:11;19.57;;;10.30;;
10491;SDS011;5293;51.464;-2.566;2022-12-04T08:53:38;18.60;;;10.17;;
10491;SDS011;5293;51.464;-2.566;2022-12-04T08:56:04;21.10;;;10.00;;
10491;SDS011;5293;51.464;-2.566;2022-12-04T08:58:30;21.37;;;10.53;;
10491;SDS011;5293;51.464;-2.566;2022-12-04T09:01:02;18.33;;;9.80;;
10491;SDS011;5293;51.464;-2.566;2022-12-04T09:03:32;21.20;;;9.70;;
10491;SDS011;5293;51.464;-2.566;2022-12-04T09:05:58;19.03;;;10.13;;
10491;SDS011;5293;51.464;-2.566;2022-12-04T09:08:24;24.43;;;10.93;;
10491;SDS011;5293;51.464;-2.566;2022-12-04T09:10:50;22.37;;;11.07;;
10491;SDS011;5293;51.464;-2.566;2022-12-04T09:13:15;23.90;;;10.30;;
10491;SDS011;5293;51.464;-2.566;2022-12-04T09:15:41;21.97;;;11.00;;
10491;SDS011;5293;51.464;-2.566;2022-12-04T09:18:07;21.50;;;11.43;;
10491;SDS011;5293;51.464;-2.566;2022-12-04T09:20:33;22.33;;;11.60;;
10491;SDS011;5293;51.464;-2.566;2022-12-04T09:23:00;27.47;;;11.90;;
10491;SDS011;5293;51.464;-2.566;2022-12-04T09:25:26;26.37;;;12.97;;
10491;SDS011;5293;51.464;-2.566;2022-12-04T09:27:52;29.83;;;13.43;;
10491;SDS011;5293;51.464;-2.566;2022-12-04T09:30:17;22.33;;;12.10;;
10491;SDS011;5293;51.464;-2.566;2022-12-04T09:32:43;32.77;;;14.03;;
10491;SDS011;5293;51.464;-2.566;2022-12-04T09:35:09;24.20;;;13.37;;
10491;SDS011;5293;51.464;-2.566;2022-12-04T09:37:35;26.23;;;13.70;;
10491;SDS011;5293;51.464;-2.566;2022-12-04T09:40:01;30.93;;;14.00;;
10491;SDS011;5293;51.464;-2.566;2022-12-04T09:42:44;28.27;;;13.30;;
10491;SDS011;5293;51.464;-2.566;2022-12-04T09:45:27;25.80;;;13.80;;
10491;SDS011;5293;51.464;-2.566;2022-12-04T09:47:58;24.93;;;12.83;;
10491;SDS011;5293;51.464;-2.566;2022-12-04T09:50:26;28.37;;;12.83;;
10491;SDS011;5293;51.464;-2.566;2022-12-04T09:53:01;20.63;;;12.03;;
10491;SDS011;5293;51.464;-2.566;2022-12-04T09:55:37;23.83;;;12.53;;
10491;SDS011;5293;51.464;-2.566;2022-12-04T09:58:24;27.43;;;14.13;;
10491;SDS011;5293;51.464;-2.566;2022-12-04T10:00:56;26.13;;;13.03;;
10491;SDS011;5293;51.464;-2.566;2022-12-04T10:03:26;28.40;;;13.40;;
10491;SDS011;5293;51.464;-2.566;2022-12-04T10:05:55;22.43;;;11.97;;
10491;SDS011;5293;51.464;-2.566;2022-12-04T10:08:23;28.13;;;13.57;;
10491;SDS011;5293;51.464;-2.566;2022-12-04T10:11:02;28.07;;;13.23;;
10491;SDS011;5293;51.464;-2.566;2022-12-04T10:27:24;25.27;;;12.40;;
10491;SDS011;5293;51.464;-2.566;2022-12-04T10:29:58;27.73;;;12.37;;
10491;SDS011;5293;51.464;-2.566;2022-12-04T10:32:29;22.90;;;12.27;;
10491;SDS011;5293;51.464;-2.566;2022-12-04T10:34:57;33.03;;;13.83;;
10491;SDS011;5293;51.464;-2.566;2022-12-04T10:37:36;26.73;;;12.13;;
10491;SDS011;5293;51.464;-2.566;2022-12-04T10:42:51;22.97;;;12.30;;
10491;SDS011;5293;51.464;-2.566;2022-12-04T10:45:40;24.73;;;12.80;;
10491;SDS011;5293;51.464;-2.566;2022-12-04T10:48:08;22.27;;;12.27;;
10491;SDS011;5293;51.464;-2.566;2022-12-04T10:50:44;23.63;;;13.20;;
10491;SDS011;5293;51.464;-2.566;2022-12-04T10:53:10;21.97;;;12.37;;
10491;SDS011;5293;51.464;-2.566;2022-12-04T10:55:39;24.07;;;12.27;;
10491;SDS011;5293;51.464;-2.566;2022-12-04T10:58:13;24.70;;;13.40;;
10491;SDS011;5293;51.464;-2.566;2022-12-04T11:00:40;28.50;;;13.27;;
10491;SDS011;5293;51.464;-2.566;2022-12-04T11:03:21;26.20;;;13.30;;
10491;SDS011;5293;51.464;-2.566;2022-12-04T11:05:53;39.07;;;14.27;;
10491;SDS011;5293;51.464;-2.566;2022-12-04T11:08:30;25.70;;;12.67;;
10491;SDS011;5293;51.464;-2.566;2022-12-04T11:11:04;25.90;;;12.30;;
10491;SDS011;5293;51.464;-2.566;2022-12-04T11:13:32;25.07;;;13.50;;
10491;SDS011;5293;51.464;-2.566;2022-12-04T11:15:59;29.00;;;14.47;;
10491;SDS011;5293;51.464;-2.566;2022-12-04T11:18:26;28.63;;;14.00;;
10491;SDS011;5293;51.464;-2.566;2022-12-04T11:23:21;26.10;;;14.10;;
10491;SDS011;5293;51.464;-2.566;2022-12-04T11:25:49;27.00;;;14.03;;
10491;SDS011;5293;51.464;-2.566;2022-12-04T11:28:18;33.23;;;13.70;;
10491;SDS011;5293;51.464;-2.566;2022-12-04T11:30:53;25.87;;;13.23;;
10491;SDS011;5293;51.464;-2.566;2022-12-04T11:33:37;24.67;;;13.73;;
10491;SDS011;5293;51.464;-2.566;2022-12-04T11:41:35;27.60;;;14.27;;
10491;SDS011;5293;51.464;-2.566;2022-12-04T11:44:04;23.50;;;12.53;;
10491;SDS011;5293;51.464;-2.566;2022-12-04T11:46:31;25.20;;;13.93;;
10491;SDS011;5293;51.464;-2.566;2022-12-04T11:48:58;29.10;;;13.70;;
10491;SDS011;5293;51.464;-2.566;2022-12-04T11:51:43;30.70;;;15.70;;
10491;SDS011;5293;51.464;-2.566;2022-12-04T11:57:35;25.93;;;13.47;;
10491;SDS011;5293;51.464;-2.566;2022-12-04T12:00:19;27.73;;;14.10;;
10491;SDS011;5293;51.464;-2.566;2022-12-04T12:05:48;36.77;;;18.40;;
10491;SDS011;5293;51.464;-2.566;2022-12-04T12:08:42;30.87;;;16.37;;
10491;SDS011;5293;51.464;-2.566;2022-12-04T12:14:17;41.37;;;22.53;;
10491;SDS011;5293;51.464;-2.566;2022-12-04T12:24:34;81.57;;;31.50;;
10491;SDS011;5293;51.464;-2.566;2022-12-04T12:30:22;34.77;;;17.80;;
10491;SDS011;5293;51.464;-2.566;2022-12-04T12:38:37;29.33;;;15.77;;
10491;SDS011;5293;51.464;-2.566;2022-12-04T12:41:17;30.83;;;15.53;;
10491;SDS011;5293;51.464;-2.566;2022-12-04T12:43:49;31.43;;;15.40;;
10491;SDS011;5293;51.464;-2.566;2022-12-04T12:46:30;31.50;;;16.17;;
10491;SDS011;5293;51.464;-2.566;2022-12-04T12:51:55;28.30;;;15.83;;
10491;SDS011;5293;51.464;-2.566;2022-12-04T12:54:43;37.27;;;16.93;;
10491;SDS011;5293;51.464;-2.566;2022-12-04T12:57:20;27.97;;;15.17;;
10491;SDS011;5293;51.464;-2.566;2022-12-04T12:59:58;28.63;;;15.17;;
10491;SDS011;5293;51.464;-2.566;2022-12-04T13:02:28;36.50;;;16.13;;
10491;SDS011;5293;51.464;-2.566;2022-12-04T13:05:02;36.43;;;16.07;;
10491;SDS011;5293;51.464;-2.566;2022-12-04T13:07:52;32.13;;;16.50;;
10491;SDS011;5293;51.464;-2.566;2022-12-04T13:10:31;32.07;;;16.50;;
10491;SDS011;5293;51.464;-2.566;2022-12-04T13:13:09;31.37;;;16.87;;
10491;SDS011;5293;51.464;-2.566;2022-12-04T13:15:51;35.50;;;16.00;;
10491;SDS011;5293;51.464;-2.566;2022-12-04T13:18:28;32.53;;;16.77;;
10491;SDS011;5293;51.464;-2.566;2022-12-04T13:20:58;36.43;;;17.47;;
10491;SDS011;5293;51.464;-2.566;2022-12-04T13:29:02;35.63;;;16.97;;
10491;SDS011;5293;51.464;-2.566;2022-12-04T13:31:57;31.27;;;15.90;;
10491;SDS011;5293;51.464;-2.566;2022-12-04T13:40:50;33.90;;;17.40;;
10491;SDS011;5293;51.464;-2.566;2022-12-04T13:45:54;42.10;;;17.10;;
10491;SDS011;5293;51.464;-2.566;2022-12-04T13:51:36;35.53;;;17.87;;
10491;SDS011;5293;51.464;-2.566;2022-12-04T13:56:36;35.83;;;18.37;;
10491;SDS011;5293;51.464;-2.566;2022-12-04T13:59:48;38.13;;;19.63;;
10491;SDS011;5293;51.464;-2.566;2022-12-04T14:01:55;40.73;;;21.10;;
10491;SDS011;5293;51.464;-2.566;2022-12-04T14:04:37;51.70;;;23.47;;
10491;SDS011;5293;51.464;-2.566;2022-12-04T14:07:59;35.80;;;17.80;;
10491;SDS011;5293;51.464;-2.566;2022-12-04T14:12:48;35.10;;;18.30;;
10491;SDS011;5293;51.464;-2.566;2022-12-04T14:15:27;35.03;;;18.83;;
10491;SDS011;5293;51.464;-2.566;2022-12-04T14:17:57;43.43;;;21.10;;
10491;SDS011;5293;51.464;-2.566;2022-12-04T14:20:27;40.43;;;20.90;;
10491;SDS011;5293;51.464;-2.566;2022-12-04T14:23:05;36.37;;;20.40;;
10491;SDS011;5293;51.464;-2.566;2022-12-04T14:25:50;39.00;;;19.03;;
10491;SDS011;5293;51.464;-2.566;2022-12-04T14:31:40;31.47;;;16.57;;
10491;SDS011;5293;51.464;-2.566;2022-12-04T14:33:46;32.00;;;16.70;;
10491;SDS011;5293;51.464;-2.566;2022-12-04T14:36:18;32.83;;;15.77;;
10491;SDS011;5293;51.464;-2.566;2022-12-04T14:39:03;30.73;;;15.80;;
10491;SDS011;5293;51.464;-2.566;2022-12-04T14:41:33;32.73;;;16.07;;
10491;SDS011;5293;51.464;-2.566;2022-12-04T14:43:58;32.63;;;16.40;;
10491;SDS011;5293;51.464;-2.566;2022-12-04T14:46:46;32.40;;;17.07;;
10491;SDS011;5293;51.464;-2.566;2022-12-04T14:54:59;27.37;;;15.23;;
10491;SDS011;5293;51.464;-2.566;2022-12-04T14:57:52;27.67;;;13.63;;
10491;SDS011;5293;51.464;-2.566;2022-12-04T15:00:22;29.23;;;15.43;;
10491;SDS011;5293;51.464;-2.566;2022-12-04T15:02:53;30.07;;;15.57;;
10491;SDS011;5293;51.464;-2.566;2022-12-04T15:05:26;28.67;;;15.93;;
10491;SDS011;5293;51.464;-2.566;2022-12-04T15:08:03;30.07;;;15.83;;
10491;SDS011;5293;51.464;-2.566;2022-12-04T15:10:30;29.07;;;14.87;;
10491;SDS011;5293;51.464;-2.566;2022-12-04T15:13:26;26.60;;;14.90;;
10491;SDS011;5293;51.464;-2.566;2022-12-04T15:15:53;26.90;;;15.37;;
10491;SDS011;5293;51.464;-2.566;2022-12-04T15:18:19;28.60;;;14.70;;
10491;SDS011;5293;51.464;-2.566;2022-12-04T15:23:15;25.20;;;14.03;;
10491;SDS011;5293;51.464;-2.566;2022-12-04T15:25:44;29.10;;;16.20;;
10491;SDS011;5293;51.464;-2.566;2022-12-04T15:28:14;24.37;;;14.50;;
10491;SDS011;5293;51.464;-2.566;2022-12-04T15:30:43;28.77;;;16.37;;
10491;SDS011;5293;51.464;-2.566;2022-12-04T15:33:11;25.77;;;15.80;;
10491;SDS011;5293;51.464;-2.566;2022-12-04T15:35:46;31.37;;;16.10;;
10491;SDS011;5293;51.464;-2.566;2022-12-04T15:38:36;27.47;;;14.10;;
10491;SDS011;5293;51.464;-2.566;2022-12-04T15:41:04;26.70;;;16.20;;
10491;SDS011;5293;51.464;-2.566;2022-12-04T15:43:40;27.40;;;15.67;;
10491;SDS011;5293;51.464;-2.566;2022-12-04T15:46:14;32.93;;;16.17;;
10491;SDS011;5293;51.464;-2.566;2022-12-04T15:48:47;27.93;;;14.57;;
10491;SDS011;5293;51.464;-2.566;2022-12-04T15:51:13;29.73;;;16.17;;
10491;SDS011;5293;51.464;-2.566;2022-12-04T15:53:43;27.37;;;15.27;;
10491;SDS011;5293;51.464;-2.566;2022-12-04T15:56:17;27.67;;;15.23;;
10491;SDS011;5293;51.464;-2.566;2022-12-04T15:58:55;28.57;;;15.07;;
10491;SDS011;5293;51.464;-2.566;2022-12-04T16:01:23;29.70;;;15.57;;
10491;SDS011;5293;51.464;-2.566;2022-12-04T16:03:50;28.47;;;14.53;;
10491;SDS011;5293;51.464;-2.566;2022-12-04T16:09:29;28.80;;;15.70;;
10491;SDS011;5293;51.464;-2.566;2022-12-04T16:11:42;27.63;;;15.77;;
10491;SDS011;5293;51.464;-2.566;2022-12-04T16:16:39;27.63;;;14.57;;
10491;SDS011;5293;51.464;-2.566;2022-12-04T16:19:08;27.53;;;16.50;;
10491;SDS011;5293;51.464;-2.566;2022-12-04T16:21:45;26.33;;;14.93;;
10491;SDS011;5293;51.464;-2.566;2022-12-04T16:24:11;30.90;;;15.53;;
10491;SDS011;5293;51.464;-2.566;2022-12-04T16:26:38;29.07;;;15.40;;
10491;SDS011;5293;51.464;-2.566;2022-12-04T16:29:04;28.90;;;14.53;;
10491;SDS011;5293;51.464;-2.566;2022-12-04T16:31:30;32.67;;;18.15;;
10491;SDS011;5293;51.464;-2.566;2022-12-04T16:33:55;29.53;;;16.60;;
10491;SDS011;5293;51.464;-2.566;2022-12-04T16:36:21;32.90;;;15.97;;
10491;SDS011;5293;51.464;-2.566;2022-12-04T16:38:47;28.67;;;16.50;;
10491;SDS011;5293;51.464;-2.566;2022-12-04T16:41:15;28.97;;;15.87;;
10491;SDS011;5293;51.464;-2.566;2022-12-04T16:43:42;31.13;;;18.47;;
10491;SDS011;5293;51.464;-2.566;2022-12-04T16:46:10;32.93;;;18.00;;
10491;SDS011;5293;51.464;-2.566;2022-12-04T16:48:39;36.07;;;19.10;;
10491;SDS011;5293;51.464;-2.566;2022-12-04T16:51:11;36.60;;;19.20;;
10491;SDS011;5293;51.464;-2.566;2022-12-04T16:53:40;37.53;;;20.00;;
10491;SDS011;5293;51.464;-2.566;2022-12-04T16:56:06;38.50;;;17.90;;
10491;SDS011;5293;51.464;-2.566;2022-12-04T16:58:32;33.87;;;18.77;;
10491;SDS011;5293;51.464;-2.566;2022-12-04T17:00:58;32.67;;;18.67;;